Time;durP1;ratioP1;P1;durP2;ratioP2;P2;SDS_P1;SDS_P2;PMS_P1;PMS_P2;Temp;Humidity;BMP_temperature;BMP_pressure;BME280_temperature;BME280_humidity;BME280_pressure;Samples;Min_cycle;Max_cycle;Signal;HPM_P1;HPM_P2
2021/12/29 00:01:03;;;;;;;;;;;22.20;49.50;;;;;;6338651;27;19931;-44
2021/12/29 00:04:05;;;;;;;;;;;22.00;49.30;;;;;;6330629;27;20117;-45
2021/12/29 00:07:07;;;;;;;;;;;22.00;49.40;;;;;;6319957;27;19923;-43
2021/12/29 00:10:10;;;;;;;;;;;22.00;49.40;;;;;;6331674;27;19958;-43
2021/12/29 00:13:11;;;;;;;;;;;21.70;49.10;;;;;;6323210;27;24024;-45
2021/12/29 00:16:13;;;;;;;;;;;21.70;49.20;;;;;;6323334;28;19927;-44
2021/12/29 00:19:14;;;;;;;;;;;21.60;49.20;;;;;;6327300;27;19968;-43
2021/12/29 00:22:15;;;;;;;;;;;22.20;49.50;;;;;;6321766;28;19974;-45
2021/12/29 00:25:17;;;;;;;;;;;21.80;49.30;;;;;;6321282;27;20767;-45
2021/12/29 00:28:22;;;;;;;;;;;21.70;49.20;;;;;;6321021;28;19927;-46
2021/12/29 00:31:23;;;;;;;;;;;22.20;49.50;;;;;;6318540;27;19958;-45
2021/12/29 00:34:36;;;;;;;;;;;21.70;49.20;;;;;;6342530;27;19927;-44
2021/12/29 00:37:59;;;;;;;;;;;22.10;49.50;;;;;;6320849;27;20583;-42
2021/12/29 00:41:17;;;;;;;;;;;21.80;49.30;;;;;;6310430;27;19962;-43
2021/12/29 00:44:36;;;;;;;;;;;21.80;49.30;;;;;;6317988;27;19928;-46
2021/12/29 00:47:45;;;;;;;;;;;21.70;49.30;;;;;;6333681;27;19933;-44
2021/12/29 00:50:48;;;;;;;;;;;21.60;49.20;;;;;;6334019;27;19935;-43
2021/12/29 00:53:49;;;;;;;;;;;21.70;49.30;;;;;;6305771;27;19934;-43
2021/12/29 00:56:51;;;;;;;;;;;21.90;49.40;;;;;;6332679;27;19974;-45
2021/12/29 00:59:53;;;;;;;;;;;21.80;49.30;;;;;;6338257;27;19928;-45
2021/12/29 01:02:54;;;;;;;;;;;21.80;49.40;;;;;;6327266;27;20147;-43
2021/12/29 01:05:56;;;;;;;;;;;21.70;49.30;;;;;;6314649;27;19977;-44
2021/12/29 01:08:57;;;;;;;;;;;21.70;49.30;;;;;;6346366;27;19950;-44
2021/12/29 01:12:00;;;;;;;;;;;22.00;49.50;;;;;;6333495;27;20046;-43
2021/12/29 01:15:02;;;;;;;;;;;22.10;49.50;;;;;;6330616;27;20013;-43
2021/12/29 01:18:05;;;;;;;;;;;21.90;49.40;;;;;;6330965;28;20504;-42
2021/12/29 01:21:06;;;;;;;;;;;22.20;49.60;;;;;;6332885;27;20028;-44
2021/12/29 01:24:08;;;;;;;;;;;21.70;49.40;;;;;;6355380;27;20046;-46
2021/12/29 01:27:10;;;;;;;;;;;21.80;49.50;;;;;;6329044;27;20824;-44
2021/12/29 01:30:12;;;;;;;;;;;21.80;49.40;;;;;;6333824;27;19959;-45
2021/12/29 01:33:13;;;;;;;;;;;22.20;49.70;;;;;;6332844;27;19932;-44
2021/12/29 01:36:15;;;;;;;;;;;21.70;49.40;;;;;;6331736;28;20011;-44
2021/12/29 01:39:17;;;;;;;;;;;22.00;49.60;;;;;;6332567;27;20569;-43
2021/12/29 01:42:19;;;;;;;;;;;21.80;49.40;;;;;;6335367;27;19930;-43
2021/12/29 01:45:21;;;;;;;;;;;22.00;49.60;;;;;;6333739;27;19989;-43
2021/12/29 01:48:23;;;;;;;;;;;22.00;49.60;;;;;;6332327;27;20013;-45
2021/12/29 01:51:24;;;;;;;;;;;21.70;49.40;;;;;;6333527;27;20708;-45
2021/12/29 01:54:26;;;;;;;;;;;21.90;49.60;;;;;;6333410;27;20034;-44
2021/12/29 01:57:28;;;;;;;;;;;22.00;49.70;;;;;;6331241;27;20120;-43
2021/12/29 02:00:31;;;;;;;;;;;21.80;49.50;;;;;;6324184;27;19963;-44
2021/12/29 02:03:33;;;;;;;;;;;22.40;49.90;;;;;;6329128;27;20623;-42
2021/12/29 02:06:34;;;;;;;;;;;21.90;49.60;;;;;;6343502;27;20352;-43
2021/12/29 02:09:36;;;;;;;;;;;21.70;49.60;;;;;;6303551;28;19975;-44
2021/12/29 02:12:38;;;;;;;;;;;21.90;49.60;;;;;;6320120;27;19967;-42
2021/12/29 02:15:39;;;;;;;;;;;21.80;49.60;;;;;;6310314;28;20017;-44
2021/12/29 02:18:49;;;;;;;;;;;22.00;49.70;;;;;;6340690;27;19927;-44
2021/12/29 02:21:57;;;;;;;;;;;21.70;49.60;;;;;;6335350;27;20462;-42
2021/12/29 02:25:18;;;;;;;;;;;21.90;49.70;;;;;;6323648;27;19978;-43
2021/12/29 02:28:23;;;;;;;;;;;21.90;49.70;;;;;;6316325;28;19970;-45
2021/12/29 02:31:25;;;;;;;;;;;22.20;49.80;;;;;;6308013;28;20751;-44
2021/12/29 02:34:26;;;;;;;;;;;22.00;49.80;;;;;;6324776;27;19924;-43
2021/12/29 02:37:28;;;;;;;;;;;22.10;49.90;;;;;;6336130;27;20003;-43
2021/12/29 02:40:31;;;;;;;;;;;21.60;49.70;;;;;;6336975;27;20043;-45
2021/12/29 02:43:36;;;;;;;;;;;21.90;49.90;;;;;;6307057;27;19927;-44
2021/12/29 02:46:38;;;;;;;;;;;21.60;49.70;;;;;;6326885;27;19927;-42
2021/12/29 02:49:40;;;;;;;;;;;21.90;49.80;;;;;;6326103;27;20350;-43
2021/12/29 02:52:42;;;;;;;;;;;21.90;49.90;;;;;;6330537;27;20670;-43
2021/12/29 02:55:43;;;;;;;;;;;22.20;50.00;;;;;;6316859;27;20723;-44
2021/12/29 02:58:44;;;;;;;;;;;21.80;49.90;;;;;;6330202;27;19970;-42
2021/12/29 03:01:46;;;;;;;;;;;22.00;50.00;;;;;;6334760;27;20332;-43
2021/12/29 03:04:47;;;;;;;;;;;22.10;50.10;;;;;;6322421;27;21235;-43
2021/12/29 03:07:50;;;;;;;;;;;21.80;49.90;;;;;;6328197;27;19987;-44
2021/12/29 03:10:53;;;;;;;;;;;21.90;50.00;;;;;;6331921;27;20554;-44
2021/12/29 03:13:55;;;;;;;;;;;22.30;50.20;;;;;;6323822;27;20025;-42
2021/12/29 03:16:56;;;;;;;;;;;21.80;50.00;;;;;;6324428;27;20014;-43
2021/12/29 03:19:58;;;;;;;;;;;22.20;50.20;;;;;;6328620;27;19924;-42
2021/12/29 03:23:00;;;;;;;;;;;21.90;50.10;;;;;;6311267;27;20598;-42
2021/12/29 03:26:02;;;;;;;;;;;22.10;50.20;;;;;;6320521;27;19935;-42
2021/12/29 03:29:05;;;;;;;;;;;21.90;50.00;;;;;;6315280;27;19927;-46
2021/12/29 03:32:10;;;;;;;;;;;21.90;50.00;;;;;;6320135;27;19926;-46
2021/12/29 03:35:11;;;;;;;;;;;22.30;50.20;;;;;;6327605;27;19927;-44
2021/12/29 03:38:14;;;;;;;;;;;21.90;50.70;;;;;;6324216;28;20434;-44
2021/12/29 03:41:17;;;;;;;;;;;21.80;50.00;;;;;;6324805;27;20481;-44
2021/12/29 03:44:18;;;;;;;;;;;21.70;50.00;;;;;;6310782;27;20066;-42
2021/12/29 03:47:19;;;;;;;;;;;21.80;50.10;;;;;;6334310;27;19963;-44
2021/12/29 03:50:22;;;;;;;;;;;21.80;50.10;;;;;;6342166;27;20070;-45
2021/12/29 03:53:24;;;;;;;;;;;21.90;50.10;;;;;;6314307;27;19974;-45
2021/12/29 03:56:25;;;;;;;;;;;22.00;50.20;;;;;;6304291;27;19923;-42
2021/12/29 03:59:27;;;;;;;;;;;21.90;50.20;;;;;;6323164;27;20358;-45
2021/12/29 04:02:28;;;;;;;;;;;22.00;50.30;;;;;;6332528;27;20025;-42
2021/12/29 04:05:30;;;;;;;;;;;22.50;50.50;;;;;;6337616;27;19927;-43
2021/12/29 04:08:32;;;;;;;;;;;21.80;50.20;;;;;;6343377;27;20144;-47
2021/12/29 04:11:33;;;;;;;;;;;21.90;50.30;;;;;;6342807;27;20038;-44
2021/12/29 04:14:34;;;;;;;;;;;21.80;50.20;;;;;;6330745;27;20348;-41
2021/12/29 04:17:37;;;;;;;;;;;22.20;50.40;;;;;;6324582;28;20058;-42
2021/12/29 04:23:55;;;;;;;;;;;21.80;50.20;;;;;;6331023;27;19928;-43
2021/12/29 04:26:56;;;;;;;;;;;22.20;50.40;;;;;;6330965;27;20027;-43
2021/12/29 04:29:58;;;;;;;;;;;22.20;50.40;;;;;;6327180;27;20335;-46
2021/12/29 04:32:59;;;;;;;;;;;22.10;50.30;;;;;;6319017;27;20423;-43
2021/12/29 04:36:00;;;;;;;;;;;22.10;50.30;;;;;;6325983;28;19927;-48
2021/12/29 04:39:04;;;;;;;;;;;22.10;50.30;;;;;;6329240;27;19930;-43
2021/12/29 04:42:06;;;;;;;;;;;21.90;50.20;;;;;;6328191;27;19940;-45
2021/12/29 04:45:07;;;;;;;;;;;22.00;50.30;;;;;;6326589;27;20045;-43
2021/12/29 04:48:13;;;;;;;;;;;21.90;50.20;;;;;;6322173;28;19927;-44
2021/12/29 04:51:22;;;;;;;;;;;21.80;50.30;;;;;;6323375;27;19993;-43
2021/12/29 04:54:24;;;;;;;;;;;22.00;50.40;;;;;;6324773;27;20053;-45
2021/12/29 04:57:26;;;;;;;;;;;21.90;50.40;;;;;;6334878;27;19927;-44
2021/12/29 05:00:28;;;;;;;;;;;21.90;50.40;;;;;;6344515;27;19934;-45
2021/12/29 05:03:31;;;;;;;;;;;22.00;50.50;;;;;;6323483;27;19927;-47
2021/12/29 05:09:47;;;;;;;;;;;22.10;50.50;;;;;;6327576;27;19927;-46
2021/12/29 05:12:49;;;;;;;;;;;21.80;50.40;;;;;;6332442;27;20356;-46
2021/12/29 05:15:50;;;;;;;;;;;22.10;50.60;;;;;;6331572;27;20042;-47
2021/12/29 05:18:52;;;;;;;;;;;21.90;50.50;;;;;;6332794;27;19922;-44
2021/12/29 05:21:53;;;;;;;;;;;22.30;50.80;;;;;;6324217;27;19923;-43
2021/12/29 05:24:55;;;;;;;;;;;22.20;50.80;;;;;;6310833;27;19961;-45
2021/12/29 05:27:56;;;;;;;;;;;21.90;50.60;;;;;;6317470;27;20007;-43
2021/12/29 05:31:00;;;;;;;;;;;22.10;50.70;;;;;;6314775;27;19992;-42
2021/12/29 05:34:02;;;;;;;;;;;22.10;50.80;;;;;;6298956;28;20431;-43
2021/12/29 05:37:04;;;;;;;;;;;22.30;51.40;;;;;;6333102;27;20290;-43
2021/12/29 05:40:07;;;;;;;;;;;21.70;50.50;;;;;;6326386;27;19943;-43
2021/12/29 05:43:08;;;;;;;;;;;22.10;50.70;;;;;;6304022;27;19925;-46
2021/12/29 05:46:09;;;;;;;;;;;21.80;50.60;;;;;;6330255;27;19994;-43
2021/12/29 05:49:11;;;;;;;;;;;22.10;50.80;;;;;;6327367;27;19927;-43
2021/12/29 05:52:15;;;;;;;;;;;22.00;50.80;;;;;;6311950;27;20366;-43
2021/12/29 05:55:17;;;;;;;;;;;21.80;50.70;;;;;;6337902;27;20086;-48
2021/12/29 05:58:18;;;;;;;;;;;21.80;50.70;;;;;;6338926;27;20050;-45
2021/12/29 06:01:20;;;;;;;;;;;22.10;50.90;;;;;;6333468;27;20037;-43
2021/12/29 06:04:21;;;;;;;;;;;22.20;51.00;;;;;;6325671;27;20708;-47
2021/12/29 06:07:23;;;;;;;;;;;22.40;51.00;;;;;;6334990;27;20050;-47
2021/12/29 06:10:25;;;;;;;;;;;22.10;50.90;;;;;;6330924;27;19973;-46
2021/12/29 06:13:27;;;;;;;;;;;21.80;50.80;;;;;;6344212;27;19969;-43
2021/12/29 06:16:28;;;;;;;;;;;22.10;51.00;;;;;;6325832;27;20838;-44
2021/12/29 06:19:30;;;;;;;;;;;21.90;50.90;;;;;;6329365;27;19996;-44
2021/12/29 06:22:32;;;;;;;;;;;21.70;50.80;;;;;;6320315;27;19928;-45
2021/12/29 06:25:34;;;;;;;;;;;21.90;50.90;;;;;;6330940;27;20046;-43
2021/12/29 06:28:35;;;;;;;;;;;21.80;50.90;;;;;;6325531;27;19930;-45
2021/12/29 06:31:37;;;;;;;;;;;21.90;51.00;;;;;;6325635;27;19927;-43
2021/12/29 06:34:38;;;;;;;;;;;22.20;51.10;;;;;;6339734;27;20717;-45
2021/12/29 06:37:40;;;;;;;;;;;22.20;51.10;;;;;;6327405;27;20050;-44
2021/12/29 06:40:42;;;;;;;;;;;21.90;51.00;;;;;;6321552;27;19965;-43
2021/12/29 06:43:43;;;;;;;;;;;21.90;50.90;;;;;;6307714;27;19919;-43
2021/12/29 06:46:45;;;;;;;;;;;22.30;51.20;;;;;;6320510;27;20034;-43
2021/12/29 06:49:46;;;;;;;;;;;21.90;50.90;;;;;;6333276;27;19935;-43
2021/12/29 06:52:47;;;;;;;;;;;22.00;50.90;;;;;;6326341;27;19934;-44
2021/12/29 06:55:49;;;;;;;;;;;22.10;50.90;;;;;;6319492;27;19927;-43
2021/12/29 06:58:51;;;;;;;;;;;22.10;50.90;;;;;;6333159;27;20037;-43
2021/12/29 07:01:52;;;;;;;;;;;22.00;50.80;;;;;;6308019;27;19927;-44
2021/12/29 07:04:54;;;;;;;;;;;22.00;50.80;;;;;;6286279;27;19935;-44
2021/12/29 07:07:56;;;;;;;;;;;22.40;51.00;;;;;;6316079;27;19934;-45
2021/12/29 07:10:59;;;;;;;;;;;22.10;50.90;;;;;;6305345;27;19923;-47
2021/12/29 07:14:03;;;;;;;;;;;22.00;50.80;;;;;;6295986;27;19927;-43
2021/12/29 07:17:05;;;;;;;;;;;22.30;51.00;;;;;;6298616;27;20034;-44
2021/12/29 07:20:06;;;;;;;;;;;22.40;51.00;;;;;;6305273;27;19934;-45
2021/12/29 07:23:08;;;;;;;;;;;22.00;50.80;;;;;;6296426;27;20104;-43
2021/12/29 07:26:12;;;;;;;;;;;22.50;51.00;;;;;;6290379;27;19919;-43
2021/12/29 07:29:14;;;;;;;;;;;22.10;50.90;;;;;;6290903;27;19927;-44
2021/12/29 07:32:18;;;;;;;;;;;22.20;50.90;;;;;;6283648;27;19927;-48
2021/12/29 07:35:19;;;;;;;;;;;22.40;51.00;;;;;;6291032;27;21713;-45
2021/12/29 07:38:20;;;;;;;;;;;22.10;50.90;;;;;;6276277;27;19928;-45
2021/12/29 07:41:22;;;;;;;;;;;22.30;51.00;;;;;;6293200;27;20916;-48
2021/12/29 07:44:26;;;;;;;;;;;22.10;50.90;;;;;;6283257;27;19934;-48
2021/12/29 07:47:27;;;;;;;;;;;22.70;51.20;;;;;;6288703;27;20857;-43
2021/12/29 07:50:29;;;;;;;;;;;22.20;50.90;;;;;;6286476;27;19935;-45
2021/12/29 07:53:34;;;;;;;;;;;22.20;50.90;;;;;;6268699;27;20889;-43
2021/12/29 07:56:36;;;;;;;;;;;22.50;51.10;;;;;;6259467;27;20916;-44
2021/12/29 07:59:37;;;;;;;;;;;22.50;51.10;;;;;;6270314;27;19928;-45
2021/12/29 08:02:39;;;;;;;;;;;22.30;51.00;;;;;;6264811;27;21708;-45
2021/12/29 08:05:41;;;;;;;;;;;22.50;51.00;;;;;;6257203;27;19927;-44
2021/12/29 08:08:42;;;;;;;;;;;22.50;51.00;;;;;;6241361;27;21505;-44
2021/12/29 08:11:45;;;;;;;;;;;22.50;51.00;;;;;;6249416;27;20048;-43
2021/12/29 08:14:47;;;;;;;;;;;22.70;51.10;;;;;;6262343;27;19927;-45
2021/12/29 08:17:49;;;;;;;;;;;22.80;51.20;;;;;;6256631;27;19932;-49
2021/12/29 08:20:50;;;;;;;;;;;22.40;50.90;;;;;;6241424;27;19927;-43
2021/12/29 08:23:51;;;;;;;;;;;22.60;51.00;;;;;;6267822;27;19962;-44
2021/12/29 08:26:53;;;;;;;;;;;22.50;50.90;;;;;;6264497;27;19931;-43
2021/12/29 08:29:55;;;;;;;;;;;22.70;51.00;;;;;;6252077;27;20104;-45
2021/12/29 08:32:56;;;;;;;;;;;22.80;51.20;;;;;;6268511;27;20683;-43
2021/12/29 08:35:58;;;;;;;;;;;22.50;51.00;;;;;;6253081;27;19934;-47
2021/12/29 08:38:59;;;;;;;;;;;22.50;51.00;;;;;;6267731;27;19927;-43
2021/12/29 08:42:01;;;;;;;;;;;22.70;51.20;;;;;;6246918;27;20915;-43
2021/12/29 08:45:03;;;;;;;;;;;22.40;50.90;;;;;;6256608;27;19973;-44
2021/12/29 08:48:04;;;;;;;;;;;22.80;51.10;;;;;;6248397;27;20050;-43
2021/12/29 08:51:06;;;;;;;;;;;22.60;51.00;;;;;;6247465;27;20864;-43
2021/12/29 08:54:09;;;;;;;;;;;22.70;51.10;;;;;;6255656;27;20008;-43
2021/12/29 08:57:11;;;;;;;;;;;22.40;51.00;;;;;;6255487;27;22180;-44
2021/12/29 09:00:14;;;;;;;;;;;22.70;51.10;;;;;;6234069;27;19977;-45
2021/12/29 09:03:15;;;;;;;;;;;22.80;51.20;;;;;;6236917;27;20573;-43
2021/12/29 09:06:17;;;;;;;;;;;22.50;51.10;;;;;;6258852;27;20002;-45
2021/12/29 09:09:19;;;;;;;;;;;22.80;51.20;;;;;;6245659;27;19927;-45
2021/12/29 09:12:22;;;;;;;;;;;22.70;51.20;;;;;;6252775;27;20778;-47
2021/12/29 09:15:24;;;;;;;;;;;22.50;51.00;;;;;;6230592;27;19934;-45
2021/12/29 09:18:27;;;;;;;;;;;22.80;51.30;;;;;;6270392;27;19981;-46
2021/12/29 09:21:29;;;;;;;;;;;23.00;51.30;;;;;;6254361;27;19949;-43
2021/12/29 09:24:31;;;;;;;;;;;22.70;51.20;;;;;;6257193;27;20022;-44
2021/12/29 09:27:33;;;;;;;;;;;22.80;51.20;;;;;;6247856;27;21532;-44
2021/12/29 09:30:36;;;;;;;;;;;22.90;51.30;;;;;;6243203;27;20452;-43
2021/12/29 09:33:38;;;;;;;;;;;22.90;51.30;;;;;;6237579;27;19933;-43
2021/12/29 09:36:39;;;;;;;;;;;22.60;51.20;;;;;;6234514;27;20172;-45
2021/12/29 09:39:40;;;;;;;;;;;22.70;51.20;;;;;;6211221;27;20167;-43
2021/12/29 09:42:42;;;;;;;;;;;22.80;51.20;;;;;;6230297;27;19928;-43
2021/12/29 09:45:45;;;;;;;;;;;23.00;51.30;;;;;;6264133;27;19969;-45
2021/12/29 09:48:47;;;;;;;;;;;22.90;51.30;;;;;;6252539;27;20064;-44
2021/12/29 09:51:49;;;;;;;;;;;22.80;51.20;;;;;;6230183;27;19931;-43
2021/12/29 09:54:50;;;;;;;;;;;22.60;51.10;;;;;;6250551;27;19934;-46
2021/12/29 09:57:55;;;;;;;;;;;22.70;51.20;;;;;;6254665;27;19928;-49
2021/12/29 10:00:57;;;;;;;;;;;22.90;51.20;;;;;;6245312;27;19927;-43
2021/12/29 10:03:59;;;;;;;;;;;22.70;51.10;;;;;;6240495;27;19928;-43
2021/12/29 10:07:09;;;;;;;;;;;23.10;51.40;;;;;;6254334;27;20128;-43
2021/12/29 10:10:15;;;;;;;;;;;22.70;51.20;;;;;;6263536;27;19966;-43
2021/12/29 10:13:17;;;;;;;;;;;22.80;51.20;;;;;;6244514;27;20049;-47
2021/12/29 10:16:20;;;;;;;;;;;22.80;51.20;;;;;;6259154;27;20366;-47
2021/12/29 10:19:22;;;;;;;;;;;22.90;51.20;;;;;;6263144;27;20004;-48
2021/12/29 10:22:23;;;;;;;;;;;22.70;51.10;;;;;;6267414;27;19927;-43
2021/12/29 10:25:25;;;;;;;;;;;23.10;51.30;;;;;;6265805;27;19935;-44
2021/12/29 10:28:29;;;;;;;;;;;23.10;51.40;;;;;;6249757;27;19934;-43
2021/12/29 10:31:32;;;;;;;;;;;23.10;51.30;;;;;;6270924;27;20202;-43
2021/12/29 10:34:33;;;;;;;;;;;22.70;51.10;;;;;;6278397;27;19927;-46
2021/12/29 10:37:35;;;;;;;;;;;23.20;51.50;;;;;;6253568;27;20414;-44
2021/12/29 10:40:36;;;;;;;;;;;22.90;51.20;;;;;;6266870;27;19931;-44
2021/12/29 10:43:40;;;;;;;;;;;22.70;51.20;;;;;;6255173;27;21023;-46
2021/12/29 10:46:41;;;;;;;;;;;22.80;51.20;;;;;;6245193;27;19928;-46
2021/12/29 10:49:50;;;;;;;;;;;23.00;51.30;;;;;;6257651;27;19934;-44
2021/12/29 10:52:53;;;;;;;;;;;22.90;51.20;;;;;;6263480;27;19938;-46
2021/12/29 10:55:55;;;;;;;;;;;22.90;51.30;;;;;;6252419;27;19932;-43
2021/12/29 10:58:57;;;;;;;;;;;23.00;51.30;;;;;;6262461;27;19927;-47
2021/12/29 11:01:58;;;;;;;;;;;22.90;51.20;;;;;;6248485;27;19934;-46
2021/12/29 11:05:01;;;;;;;;;;;22.90;51.20;;;;;;6251898;27;19934;-47
2021/12/29 11:08:05;;;;;;;;;;;23.00;51.30;;;;;;6241151;27;19943;-45
2021/12/29 11:11:07;;;;;;;;;;;23.20;51.40;;;;;;6233651;27;20364;-44
2021/12/29 11:14:10;;;;;;;;;;;23.00;51.20;;;;;;6246054;27;21815;-46
2021/12/29 11:17:15;;;;;;;;;;;23.10;51.30;;;;;;6261461;27;19969;-45
2021/12/29 11:20:17;;;;;;;;;;;23.10;51.30;;;;;;6248754;27;20623;-44
2021/12/29 11:23:20;;;;;;;;;;;22.90;51.20;;;;;;6242217;27;20977;-44
2021/12/29 11:26:29;;;;;;;;;;;22.70;51.10;;;;;;6250272;27;19927;-45
2021/12/29 11:29:31;;;;;;;;;;;23.50;51.50;;;;;;6276589;27;19967;-44
2021/12/29 11:32:34;;;;;;;;;;;23.10;51.40;;;;;;6253905;27;19941;-46
2021/12/29 11:35:38;;;;;;;;;;;23.00;51.30;;;;;;6227809;27;20066;-44
2021/12/29 11:38:39;;;;;;;;;;;23.00;51.20;;;;;;6237027;27;19927;-44
2021/12/29 11:41:42;;;;;;;;;;;23.00;51.30;;;;;;6260964;27;20356;-45
2021/12/29 11:44:44;;;;;;;;;;;23.30;51.50;;;;;;6251468;27;20024;-45
2021/12/29 11:47:46;;;;;;;;;;;22.90;51.20;;;;;;6256994;27;19998;-43
2021/12/29 11:50:48;;;;;;;;;;;23.00;51.30;;;;;;6288712;27;19933;-45
2021/12/29 11:53:53;;;;;;;;;;;23.10;51.30;;;;;;6274053;27;19934;-45
2021/12/29 11:56:55;;;;;;;;;;;23.20;51.40;;;;;;6263669;27;19923;-45
2021/12/29 12:00:06;;;;;;;;;;;23.30;51.50;;;;;;6261120;27;20015;-45
2021/12/29 12:03:13;;;;;;;;;;;23.10;51.60;;;;;;6276508;27;19973;-44
2021/12/29 12:06:19;;;;;;;;;;;23.00;51.30;;;;;;6260715;27;19962;-44
2021/12/29 12:09:22;;;;;;;;;;;22.90;51.30;;;;;;6257424;27;19969;-43
2021/12/29 12:12:32;;;;;;;;;;;22.90;51.20;;;;;;6267411;27;19934;-46
2021/12/29 12:15:36;;;;;;;;;;;23.10;51.30;;;;;;6281841;27;22067;-43
2021/12/29 12:18:45;;;;;;;;;;;23.00;51.30;;;;;;6273445;27;20069;-44
2021/12/29 12:21:47;;;;;;;;;;;23.10;51.40;;;;;;6223129;27;19954;-45
2021/12/29 12:24:56;;;;;;;;;;;23.00;51.40;;;;;;6243851;27;19996;-44
2021/12/29 12:28:02;;;;;;;;;;;23.40;51.60;;;;;;6269485;27;20971;-43
2021/12/29 12:31:04;;;;;;;;;;;22.90;51.30;;;;;;6258056;27;19927;-49
2021/12/29 12:34:07;;;;;;;;;;;23.00;51.40;;;;;;6274055;27;21874;-49
2021/12/29 12:37:13;;;;;;;;;;;23.00;51.30;;;;;;6238626;27;19928;-45
2021/12/29 12:40:21;;;;;;;;;;;23.20;51.50;;;;;;6254715;27;21477;-44
2021/12/29 12:43:23;;;;;;;;;;;23.30;51.50;;;;;;6262637;27;19993;-43
2021/12/29 12:46:30;;;;;;;;;;;22.80;51.30;;;;;;6256354;27;19927;-46
2021/12/29 12:49:40;;;;;;;;;;;23.20;51.60;;;;;;6239824;27;19928;-50
2021/12/29 12:52:42;;;;;;;;;;;23.00;51.40;;;;;;6262878;27;19934;-45
2021/12/29 12:55:46;;;;;;;;;;;23.20;51.50;;;;;;6255102;27;20066;-44
2021/12/29 12:58:50;;;;;;;;;;;23.50;51.70;;;;;;6272977;27;19934;-45
2021/12/29 13:01:52;;;;;;;;;;;23.00;51.50;;;;;;6245595;27;22053;-44
2021/12/29 13:05:04;;;;;;;;;;;23.30;51.60;;;;;;6218489;27;20047;-43
2021/12/29 13:08:06;;;;;;;;;;;23.40;51.70;;;;;;6240595;27;20774;-44
2021/12/29 13:11:08;;;;;;;;;;;23.00;51.40;;;;;;6244312;27;19927;-46
2021/12/29 13:14:10;;;;;;;;;;;23.40;51.70;;;;;;6227203;27;19931;-44
2021/12/29 13:17:15;;;;;;;;;;;23.10;51.50;;;;;;6263615;27;19971;-44
2021/12/29 13:20:17;;;;;;;;;;;23.00;51.50;;;;;;6250855;27;20114;-44
2021/12/29 13:23:19;;;;;;;;;;;23.00;51.50;;;;;;6259330;27;21041;-47
2021/12/29 13:26:21;;;;;;;;;;;23.10;51.50;;;;;;6264371;27;20962;-43
2021/12/29 13:29:23;;;;;;;;;;;23.20;51.60;;;;;;6250719;27;19977;-44
2021/12/29 13:32:26;;;;;;;;;;;23.30;51.70;;;;;;6250980;27;20061;-44
2021/12/29 13:35:32;;;;;;;;;;;23.00;51.50;;;;;;6248954;27;19927;-44
2021/12/29 13:38:34;;;;;;;;;;;23.10;51.60;;;;;;6256022;27;19999;-45
2021/12/29 13:41:36;;;;;;;;;;;23.40;52.40;;;;;;6259718;27;19934;-44
2021/12/29 13:44:37;;;;;;;;;;;23.20;51.60;;;;;;6260401;27;20008;-44
2021/12/29 13:47:41;;;;;;;;;;;23.00;51.50;;;;;;6266392;27;19927;-45
2021/12/29 13:50:42;;;;;;;;;;;23.10;51.60;;;;;;6267419;27;19927;-45
2021/12/29 13:53:45;;;;;;;;;;;23.30;51.70;;;;;;6267383;27;19927;-44
2021/12/29 13:56:52;;;;;;;;;;;23.40;51.70;;;;;;6271236;27;19959;-47
2021/12/29 13:59:54;;;;;;;;;;;23.00;51.50;;;;;;6271389;27;20037;-44
2021/12/29 14:02:56;;;;;;;;;;;23.00;51.50;;;;;;6255418;27;20832;-44
2021/12/29 14:05:59;;;;;;;;;;;23.20;51.60;;;;;;6270256;27;19928;-43
2021/12/29 14:09:01;;;;;;;;;;;23.10;51.60;;;;;;6273640;27;19987;-46
2021/12/29 14:12:06;;;;;;;;;;;23.10;51.70;;;;;;6252734;27;20003;-46
2021/12/29 14:15:09;;;;;;;;;;;23.40;51.80;;;;;;6264908;27;20767;-45
2021/12/29 14:18:14;;;;;;;;;;;23.20;51.70;;;;;;6252507;27;20711;-44
2021/12/29 14:21:17;;;;;;;;;;;23.20;51.70;;;;;;6271552;27;20044;-46
2021/12/29 14:24:18;;;;;;;;;;;23.10;51.60;;;;;;6256920;27;19955;-48
2021/12/29 14:27:22;;;;;;;;;;;22.90;51.60;;;;;;6277058;27;19928;-45
2021/12/29 14:30:25;;;;;;;;;;;23.20;51.70;;;;;;6256750;27;19927;-44
2021/12/29 14:33:35;;;;;;;;;;;23.30;51.80;;;;;;6277671;27;19933;-44
2021/12/29 14:36:44;;;;;;;;;;;23.20;51.70;;;;;;6266378;27;20054;-44
2021/12/29 14:39:45;;;;;;;;;;;23.00;51.70;;;;;;6249153;27;19927;-44
2021/12/29 14:42:46;;;;;;;;;;;23.30;51.90;;;;;;6262112;27;20850;-47
2021/12/29 14:45:49;;;;;;;;;;;23.10;51.70;;;;;;6240008;27;20020;-44
2021/12/29 14:48:52;;;;;;;;;;;23.40;51.90;;;;;;6264873;27;20044;-44
2021/12/29 14:51:57;;;;;;;;;;;23.60;52.00;;;;;;6249560;27;19927;-44
2021/12/29 14:54:59;;;;;;;;;;;23.20;51.80;;;;;;6270826;27;19928;-46
2021/12/29 14:58:00;;;;;;;;;;;23.00;51.70;;;;;;6272658;27;20897;-44
2021/12/29 15:01:04;;;;;;;;;;;23.20;51.80;;;;;;6265899;27;20008;-44
2021/12/29 15:04:06;;;;;;;;;;;23.30;52.10;;;;;;6255028;27;19936;-46
2021/12/29 15:07:16;;;;;;;;;;;23.30;51.90;;;;;;6264054;27;19933;-46
2021/12/29 15:10:18;;;;;;;;;;;23.30;51.80;;;;;;6260767;27;19974;-45
2021/12/29 15:13:20;;;;;;;;;;;23.30;51.80;;;;;;6265143;27;20106;-45
2021/12/29 15:16:25;;;;;;;;;;;23.20;51.80;;;;;;6250570;27;20037;-46
2021/12/29 15:19:27;;;;;;;;;;;23.40;51.90;;;;;;6254307;27;19927;-46
2021/12/29 15:22:28;;;;;;;;;;;23.20;51.80;;;;;;6252440;27;21240;-45
2021/12/29 15:25:30;;;;;;;;;;;23.30;51.90;;;;;;6249784;27;21284;-43
2021/12/29 15:28:31;;;;;;;;;;;23.00;51.70;;;;;;6255284;27;20049;-44
2021/12/29 15:31:33;;;;;;;;;;;23.00;51.80;;;;;;6262775;27;20120;-46
2021/12/29 15:34:35;;;;;;;;;;;23.30;51.90;;;;;;6264760;27;19934;-44
2021/12/29 15:37:37;;;;;;;;;;;23.20;51.90;;;;;;6260522;27;19927;-45
2021/12/29 15:40:39;;;;;;;;;;;23.20;51.90;;;;;;6206504;27;19927;-43
2021/12/29 15:43:41;;;;;;;;;;;23.00;51.80;;;;;;6251669;27;20084;-44
2021/12/29 15:46:43;;;;;;;;;;;22.80;51.70;;;;;;6227155;27;19935;-44
2021/12/29 15:49:45;;;;;;;;;;;23.00;51.90;;;;;;6254234;27;20046;-44
2021/12/29 15:52:49;;;;;;;;;;;23.10;51.90;;;;;;6277296;27;19933;-44
2021/12/29 15:55:50;;;;;;;;;;;23.00;51.90;;;;;;6261027;27;19931;-43
2021/12/29 15:58:52;;;;;;;;;;;23.20;52.00;;;;;;6262536;27;19928;-42
2021/12/29 16:01:53;;;;;;;;;;;23.30;52.10;;;;;;6270193;27;20133;-41
2021/12/29 16:04:56;;;;;;;;;;;23.40;52.10;;;;;;6264090;27;20066;-44
2021/12/29 16:07:59;;;;;;;;;;;23.30;52.10;;;;;;6264937;27;20432;-42
2021/12/29 16:11:01;;;;;;;;;;;22.90;51.90;;;;;;6256758;27;19926;-42
2021/12/29 16:14:02;;;;;;;;;;;23.10;52.00;;;;;;6246709;27;20011;-42
2021/12/29 16:17:04;;;;;;;;;;;23.40;52.20;;;;;;6258893;27;19935;-43
2021/12/29 16:20:07;;;;;;;;;;;23.10;52.10;;;;;;6264681;27;19985;-42
2021/12/29 16:23:08;;;;;;;;;;;23.50;52.20;;;;;;6261298;27;19930;-42
2021/12/29 16:26:10;;;;;;;;;;;23.20;52.10;;;;;;6248350;27;19933;-41
2021/12/29 16:29:11;;;;;;;;;;;23.10;52.00;;;;;;6265418;27;19993;-43
2021/12/29 16:32:13;;;;;;;;;;;23.30;52.10;;;;;;6256764;27;21122;-41
2021/12/29 16:35:15;;;;;;;;;;;23.30;52.10;;;;;;6267374;27;20049;-41
2021/12/29 16:38:16;;;;;;;;;;;23.10;52.10;;;;;;6262187;27;20000;-43
2021/12/29 16:41:18;;;;;;;;;;;22.90;52.00;;;;;;6276815;27;19928;-47
2021/12/29 16:44:19;;;;;;;;;;;23.20;52.10;;;;;;6259937;27;19935;-42
2021/12/29 16:47:21;;;;;;;;;;;23.50;52.30;;;;;;6273565;27;19928;-46
2021/12/29 16:50:24;;;;;;;;;;;23.50;52.40;;;;;;6265745;27;19927;-41
2021/12/29 16:53:25;;;;;;;;;;;22.90;52.00;;;;;;6284035;27;21034;-42
2021/12/29 16:56:27;;;;;;;;;;;23.10;52.20;;;;;;6274520;27;20618;-41
2021/12/29 16:59:28;;;;;;;;;;;23.00;52.20;;;;;;6251933;27;20584;-42
2021/12/29 17:02:30;;;;;;;;;;;22.90;52.20;;;;;;6286789;27;20099;-42
2021/12/29 17:05:32;;;;;;;;;;;23.30;52.40;;;;;;6289328;27;19965;-44
2021/12/29 17:08:34;;;;;;;;;;;23.00;52.30;;;;;;6294373;27;19926;-42
2021/12/29 17:11:35;;;;;;;;;;;23.00;52.30;;;;;;6297571;27;19933;-42
2021/12/29 17:14:36;;;;;;;;;;;23.20;52.40;;;;;;6294678;27;20266;-44
2021/12/29 17:17:38;;;;;;;;;;;23.20;52.40;;;;;;6275038;27;19944;-43
2021/12/29 17:20:40;;;;;;;;;;;22.90;52.30;;;;;;6295559;27;19928;-45
2021/12/29 17:23:42;;;;;;;;;;;23.00;52.40;;;;;;6292894;27;20051;-46
2021/12/29 17:26:43;;;;;;;;;;;23.30;52.60;;;;;;6264039;27;19935;-47
2021/12/29 17:29:45;;;;;;;;;;;23.00;52.40;;;;;;6302705;27;20479;-46
2021/12/29 17:32:46;;;;;;;;;;;23.20;52.60;;;;;;6292427;27;20045;-44
2021/12/29 17:35:48;;;;;;;;;;;23.00;52.60;;;;;;6287632;27;21053;-44
2021/12/29 17:38:50;;;;;;;;;;;23.20;52.50;;;;;;6291304;27;19934;-44
2021/12/29 17:41:51;;;;;;;;;;;22.80;52.50;;;;;;6280771;27;20278;-44
2021/12/29 17:44:53;;;;;;;;;;;22.80;52.40;;;;;;6292065;27;20155;-44
2021/12/29 17:47:54;;;;;;;;;;;22.60;52.40;;;;;;6291641;27;19927;-44